Skikda, Algeria
Current Conditions -  °F | °C
As of 6:00 PM on Friday 19 Dec 2014 (Local Time) from DABC Reporting Station
Broken Clouds Broken Clouds  
Wind Chill: 52°   Ceiling: 2600
Heat Index: 52°   Visibility: 4mi
Dew Point: 50°   Wind: 6mph
Humidity: 94%   Direction: 300°WNW
Pressure: 30.39"   Gusts: NA
Location:  36.74°N, 6.91°E
Report Text: DABC 191700Z 30005KT 6000 SCT006 FEW020TCU BKN026 11/10 Q1029
Loading
Personal Weather Stations






























Interactive Weather Map New forecast layout! Learn more

10-Day Weather Forecast

Advertisements
Track Severe Weather on mobile